Orlando, Florida
Current Conditions -  °F | °C
As of 9:53 AM on Wednesday 22 Oct 2014 (Local Time) from KORL Reporting Station
Clear Clear  
Wind Chill: 77°   Ceiling: Unl
Heat Index: 79°   Visibility: 10mi
Dew Point: 63°   Wind: 7mph
Humidity: 62%   Direction: 10°N
Pressure: 30"   Gusts: NA
Location:  28.54°N, 81.38°W
Report Text: KORL 221353Z 01006KT 10SM CLR 25/17 A3000 RMK AO2 SLP163 T02500172
Loading
Personal Weather Stations






























Interactive Weather Map
Tropical Storm Tracking
New forecast layout! Learn more

10-Day Weather Forecast

Advertisements
Track Severe Weather on mobile